createdAt,value
2022-12-16T00:01:27.186Z,5.15
2022-12-16T00:03:56.561Z,5.05
2022-12-16T00:06:27.210Z,5.40
2022-12-16T00:08:55.134Z,4.10
2022-12-16T00:11:22.993Z,4.93
2022-12-16T00:13:50.966Z,5.20
2022-12-16T00:16:21.324Z,5.18
2022-12-16T00:18:49.483Z,5.70
2022-12-16T00:21:20.522Z,5.03
2022-12-16T00:23:48.603Z,5.05
2022-12-16T00:26:16.444Z,4.75
2022-12-16T00:28:44.357Z,4.75
2022-12-16T00:31:12.742Z,5.57
2022-12-16T00:33:41.121Z,5.00
2022-12-16T00:36:09.609Z,5.47
2022-12-16T00:38:38.166Z,5.85
2022-12-16T00:41:06.506Z,5.93
2022-12-16T00:43:34.540Z,6.18
2022-12-16T00:46:02.422Z,5.68
2022-12-16T00:48:30.121Z,6.43
2022-12-16T00:50:58.039Z,6.50
2022-12-16T00:53:26.458Z,6.25
2022-12-16T00:56:03.692Z,6.57
2022-12-16T00:58:31.583Z,7.85
2022-12-16T01:00:59.536Z,7.25
2022-12-16T01:03:27.713Z,6.68
2022-12-16T01:05:55.830Z,7.20
2022-12-16T01:08:23.802Z,6.32
2022-12-16T01:10:56.630Z,7.38
2022-12-16T01:13:25.842Z,7.68
2022-12-16T01:15:53.934Z,7.43
2022-12-16T01:18:22.265Z,7.57
2022-12-16T01:20:50.059Z,8.35
2022-12-16T01:23:18.469Z,7.70
2022-12-16T01:25:46.244Z,7.88
2022-12-16T01:28:14.020Z,7.25
2022-12-16T01:30:42.119Z,8.68
2022-12-16T01:33:10.884Z,7.88
2022-12-16T01:35:55.789Z,9.05
2022-12-16T01:38:24.391Z,9.30
2022-12-16T01:40:52.366Z,8.80
2022-12-16T01:43:23.669Z,8.95
2022-12-16T01:45:52.007Z,8.60
2022-12-16T01:48:54.553Z,8.45
2022-12-16T01:51:31.727Z,8.65
2022-12-16T01:54:22.053Z,8.88
2022-12-16T01:56:56.953Z,9.15
2022-12-16T01:59:26.435Z,8.30
2022-12-16T02:01:55.351Z,8.70
2022-12-16T02:04:23.239Z,8.13
2022-12-16T02:06:51.257Z,7.90
2022-12-16T02:09:19.493Z,8.70
2022-12-16T02:12:06.060Z,9.38
2022-12-16T02:14:45.912Z,7.35
2022-12-16T02:17:25.466Z,8.35
2022-12-16T02:20:21.340Z,8.48
2022-12-16T02:23:19.736Z,7.68
2022-12-16T02:26:21.670Z,9.00
2022-12-16T02:29:10.669Z,8.25
2022-12-16T02:31:49.183Z,8.38
2022-12-16T02:34:39.684Z,9.27
2022-12-16T02:37:32.092Z,7.15
2022-12-16T02:40:07.271Z,8.25
2022-12-16T02:42:46.349Z,7.85
2022-12-16T02:45:18.732Z,8.73
2022-12-16T02:47:47.236Z,8.10
2022-12-16T02:50:22.143Z,8.10
2022-12-16T02:52:50.334Z,8.15
2022-12-16T02:55:18.227Z,7.25
2022-12-16T02:58:13.891Z,8.77
2022-12-16T03:01:13.514Z,6.85
2022-12-16T03:03:48.455Z,7.68
2022-12-16T03:06:18.521Z,8.00
2022-12-16T03:08:50.997Z,7.57
2022-12-16T03:11:18.899Z,7.20
2022-12-16T03:13:52.150Z,7.43
2022-12-16T03:16:28.879Z,7.07
2022-12-16T03:19:03.745Z,7.60
2022-12-16T03:21:37.533Z,6.13
2022-12-16T03:24:10.295Z,7.45
2022-12-16T03:27:12.246Z,6.65
2022-12-16T03:29:46.026Z,6.47
2022-12-16T03:32:38.425Z,6.78
2022-12-16T03:35:20.066Z,7.13
2022-12-16T03:37:50.131Z,5.97
2022-12-16T03:40:18.368Z,6.35
2022-12-16T03:42:46.387Z,6.15
2022-12-16T03:45:17.663Z,7.18
2022-12-16T03:47:53.089Z,6.30
2022-12-16T03:50:42.935Z,7.55
2022-12-16T03:53:10.960Z,6.38
2022-12-16T03:55:38.854Z,5.97
2022-12-16T03:58:06.761Z,6.80
2022-12-16T04:00:34.582Z,6.47
2022-12-16T04:03:02.487Z,6.72
2022-12-16T04:05:30.633Z,6.68
2022-12-16T04:08:01.857Z,6.80
2022-12-16T04:10:49.108Z,6.50
2022-12-16T04:13:35.602Z,6.35
2022-12-16T04:16:22.350Z,6.35
2022-12-16T04:19:08.986Z,5.88
2022-12-16T04:21:55.687Z,6.22
2022-12-16T04:24:26.823Z,6.35
2022-12-16T04:27:15.648Z,6.43
2022-12-16T04:30:03.127Z,6.60
2022-12-16T04:32:52.256Z,6.75
2022-12-16T04:35:38.816Z,6.20
2022-12-16T04:38:25.393Z,7.10
2022-12-16T04:41:11.806Z,6.13
2022-12-16T04:43:58.723Z,6.43
2022-12-16T04:46:45.209Z,6.43
2022-12-16T04:49:31.976Z,6.38
2022-12-16T04:52:18.373Z,6.25
2022-12-16T04:55:04.967Z,5.85
2022-12-16T04:57:51.102Z,6.50
2022-12-16T05:00:37.991Z,5.90
2022-12-16T05:03:24.771Z,6.80
2022-12-16T05:06:11.200Z,5.90
2022-12-16T05:08:57.803Z,6.15
2022-12-16T05:11:44.453Z,5.90
2022-12-16T05:14:30.631Z,6.25
2022-12-16T05:17:17.009Z,6.28
2022-12-16T05:20:03.575Z,6.43
2022-12-16T05:22:49.855Z,6.20
2022-12-16T05:25:36.417Z,6.03
2022-12-16T05:28:22.842Z,6.18
2022-12-16T05:31:09.125Z,5.70
2022-12-16T05:33:55.515Z,6.78
2022-12-16T05:36:42.212Z,6.65
2022-12-16T05:39:28.875Z,6.32
2022-12-16T05:42:15.670Z,7.38
2022-12-16T05:45:01.793Z,5.82
2022-12-16T05:47:48.211Z,6.50
2022-12-16T05:50:34.867Z,6.57
2022-12-16T05:53:28.391Z,5.75
2022-12-16T05:56:15.105Z,6.15
2022-12-16T05:59:01.284Z,7.45
2022-12-16T06:01:48.308Z,7.03
2022-12-16T06:04:34.842Z,5.70
2022-12-16T06:07:20.964Z,6.63
2022-12-16T06:10:07.663Z,5.80
2022-12-16T06:12:54.019Z,6.43
2022-12-16T06:15:40.464Z,6.88
2022-12-16T06:18:26.766Z,7.40
2022-12-16T06:21:20.400Z,6.20
2022-12-16T06:24:06.827Z,6.05
2022-12-16T06:26:53.220Z,5.82
2022-12-16T06:29:39.531Z,6.60
2022-12-16T06:32:25.887Z,6.78
2022-12-16T06:35:12.395Z,6.45
2022-12-16T06:37:58.732Z,6.90
2022-12-16T06:40:44.912Z,6.80
2022-12-16T06:43:31.613Z,6.57
2022-12-16T06:46:18.449Z,6.10
2022-12-16T06:49:04.689Z,6.70
2022-12-16T06:51:51.072Z,6.07
2022-12-16T06:54:37.389Z,6.05
2022-12-16T06:57:23.871Z,6.25
2022-12-16T07:00:10.281Z,6.50
2022-12-16T07:02:56.984Z,6.30
2022-12-16T07:05:43.497Z,5.35
2022-12-16T07:08:29.942Z,6.00
2022-12-16T07:11:17.415Z,6.68
2022-12-16T07:14:04.345Z,6.57
2022-12-16T07:16:50.870Z,6.35
2022-12-16T07:19:37.357Z,5.95
2022-12-16T07:22:23.731Z,6.20
2022-12-16T07:25:10.366Z,6.43
2022-12-16T07:27:56.531Z,6.22
2022-12-16T07:30:42.657Z,6.10
2022-12-16T07:33:29.179Z,5.75
2022-12-16T07:36:15.784Z,6.22
2022-12-16T07:39:01.924Z,6.60
2022-12-16T07:41:48.432Z,5.60
2022-12-16T07:44:34.982Z,6.40
2022-12-16T07:47:21.338Z,6.40
2022-12-16T07:50:07.700Z,6.30
2022-12-16T07:52:55.485Z,6.38
2022-12-16T07:55:41.598Z,6.43
2022-12-16T07:58:29.015Z,6.35
2022-12-16T08:01:15.331Z,6.22
2022-12-16T08:04:01.496Z,7.18
2022-12-16T08:06:47.861Z,6.88
2022-12-16T08:09:34.089Z,6.85
2022-12-16T08:12:20.647Z,6.38
2022-12-16T08:15:07.270Z,6.10
2022-12-16T08:17:54.004Z,6.22
2022-12-16T08:20:41.790Z,6.07
2022-12-16T08:23:28.466Z,6.00
2022-12-16T08:26:14.917Z,6.63
2022-12-16T08:29:20.270Z,6.20
2022-12-16T08:34:53.616Z,6.85
2022-12-16T08:37:39.778Z,7.35
2022-12-16T08:40:35.416Z,6.43
2022-12-16T08:43:22.554Z,6.78
2022-12-16T08:46:12.424Z,7.47
2022-12-16T08:48:59.158Z,7.40
2022-12-16T08:51:45.913Z,28.25
2022-12-16T08:54:32.401Z,21.75
2022-12-16T08:57:18.838Z,23.08
2022-12-16T09:00:05.106Z,25.48
2022-12-16T09:02:52.639Z,24.58
2022-12-16T09:05:39.132Z,25.40
2022-12-16T09:08:25.654Z,24.27
2022-12-16T09:11:11.764Z,24.25
2022-12-16T09:13:58.293Z,22.92
2022-12-16T09:16:44.748Z,21.55
2022-12-16T09:19:31.344Z,21.92
2022-12-16T09:22:17.867Z,21.50
2022-12-16T09:25:04.160Z,19.45
2022-12-16T09:27:50.438Z,18.60
2022-12-16T09:30:37.613Z,17.98
2022-12-16T09:33:24.040Z,16.83
2022-12-16T09:36:10.610Z,16.92
2022-12-16T09:38:57.190Z,13.57
2022-12-16T09:41:46.413Z,14.90
2022-12-16T09:45:20.204Z,13.25
2022-12-16T09:48:38.483Z,12.95
2022-12-16T09:51:25.715Z,12.15
2022-12-16T09:54:13.737Z,11.73
2022-12-16T09:57:00.969Z,11.07
2022-12-16T09:59:54.286Z,10.20
2022-12-16T10:02:42.879Z,10.55
2022-12-16T10:05:31.983Z,10.50
2022-12-16T10:08:29.432Z,10.27
2022-12-16T10:11:25.736Z,8.27
2022-12-16T10:14:24.599Z,9.27
2022-12-16T10:17:32.569Z,9.45
2022-12-16T10:20:26.933Z,9.07
2022-12-16T10:23:21.823Z,7.97
2022-12-16T10:26:26.514Z,8.95
2022-12-16T10:29:23.012Z,8.98
2022-12-16T10:32:09.395Z,7.88
2022-12-16T10:34:56.550Z,6.70
2022-12-16T10:37:55.480Z,7.82
2022-12-16T10:40:45.232Z,7.72
2022-12-16T10:44:02.596Z,7.55
2022-12-16T10:46:51.912Z,6.28
2022-12-16T10:49:39.074Z,6.55
2022-12-16T10:52:28.723Z,6.70
2022-12-16T10:55:39.832Z,6.30
2022-12-16T10:58:45.256Z,6.10
2022-12-16T11:01:45.888Z,6.20
2022-12-16T11:04:55.596Z,5.57
2022-12-16T11:07:57.379Z,6.45
2022-12-16T11:10:49.357Z,5.82
2022-12-16T11:13:48.716Z,5.57
2022-12-16T11:16:43.505Z,5.68
2022-12-16T11:19:39.847Z,5.18
2022-12-16T11:22:35.148Z,5.55
2022-12-16T11:25:41.089Z,6.13
2022-12-16T11:28:37.327Z,5.78
2022-12-16T11:31:29.034Z,5.95
2022-12-16T11:34:17.526Z,5.07
2022-12-16T11:37:04.315Z,5.65
2022-12-16T11:39:52.735Z,5.47
2022-12-16T11:42:47.451Z,5.65
2022-12-16T11:45:39.347Z,4.93
2022-12-16T11:48:32.986Z,5.55
2022-12-16T11:51:20.554Z,5.07
2022-12-16T11:54:33.382Z,4.90
2022-12-16T11:57:21.525Z,5.05
2022-12-16T12:00:15.723Z,4.78
2022-12-16T12:03:19.300Z,5.18
2022-12-16T12:06:23.831Z,4.78
2022-12-16T12:09:28.421Z,4.97
2022-12-16T12:12:23.172Z,5.18
2022-12-16T12:15:32.093Z,4.60
2022-12-16T12:18:33.157Z,4.88
2022-12-16T12:21:31.016Z,5.22
2022-12-16T12:24:40.238Z,5.18
2022-12-16T12:27:36.109Z,5.13
2022-12-16T12:33:21.698Z,4.85
2022-12-16T12:36:36.090Z,5.43
2022-12-16T12:39:48.728Z,5.55
2022-12-16T12:42:51.717Z,5.18
2022-12-16T12:45:50.349Z,6.13
2022-12-16T12:49:02.609Z,6.00
2022-12-16T12:52:26.912Z,5.55
2022-12-16T12:55:21.156Z,6.75
2022-12-16T12:58:09.526Z,6.47
2022-12-16T13:01:01.853Z,6.63
2022-12-16T13:03:57.480Z,6.07
2022-12-16T13:06:44.167Z,8.93
2022-12-16T13:09:54.441Z,8.32
2022-12-16T13:12:43.569Z,8.80
2022-12-16T13:15:53.829Z,9.10
2022-12-16T13:18:48.870Z,9.77
2022-12-16T13:22:04.996Z,10.70
2022-12-16T13:24:58.403Z,9.73
2022-12-16T13:27:45.830Z,10.57
2022-12-16T13:30:35.039Z,10.38
2022-12-16T13:33:49.365Z,10.10
2022-12-16T13:36:37.177Z,9.45
2022-12-16T13:39:43.009Z,9.85
2022-12-16T13:42:50.870Z,9.82
2022-12-16T13:46:11.358Z,9.43
2022-12-16T13:49:01.388Z,10.25
2022-12-16T13:51:56.638Z,9.48
2022-12-16T13:55:05.803Z,10.00
2022-12-16T13:58:00.597Z,9.70
2022-12-16T14:00:47.800Z,8.18
2022-12-16T14:03:56.675Z,9.65
2022-12-16T14:06:44.900Z,10.23
2022-12-16T14:09:43.121Z,9.75
2022-12-16T14:12:59.103Z,9.45
2022-12-16T14:15:51.521Z,8.80
2022-12-16T14:19:01.230Z,9.30
2022-12-16T14:22:34.398Z,8.93
2022-12-16T14:25:33.552Z,7.90
2022-12-16T14:28:20.663Z,8.32
2022-12-16T14:31:06.923Z,8.65
2022-12-16T14:33:53.323Z,8.32
2022-12-16T14:36:47.283Z,8.98
2022-12-16T14:39:40.922Z,7.30
2022-12-16T14:42:45.627Z,7.28
2022-12-16T14:45:52.865Z,6.93
2022-12-16T14:48:53.561Z,7.53
2022-12-16T14:51:54.263Z,7.82
2022-12-16T14:54:50.610Z,7.70
2022-12-16T14:57:39.043Z,7.57
2022-12-16T15:00:30.907Z,7.60
2022-12-16T15:03:40.109Z,6.78
2022-12-16T15:06:32.640Z,7.63
2022-12-16T15:09:22.833Z,7.55
2022-12-16T15:12:11.727Z,6.82
2022-12-16T15:14:58.971Z,7.45
2022-12-16T15:17:49.830Z,7.90
2022-12-16T15:20:43.983Z,8.23
2022-12-16T15:23:42.970Z,7.57
2022-12-16T15:26:37.327Z,8.52
2022-12-16T15:29:24.391Z,8.00
2022-12-16T15:32:10.853Z,7.30
2022-12-16T15:35:08.259Z,8.40
2022-12-16T15:38:04.182Z,7.55
2022-12-16T15:40:52.310Z,8.10
2022-12-16T15:43:47.941Z,7.43
2022-12-16T15:46:40.137Z,7.18
2022-12-16T15:49:39.078Z,6.68
2022-12-16T15:52:50.318Z,6.72
2022-12-16T15:55:48.969Z,6.20
2022-12-16T15:58:35.251Z,7.18
2022-12-16T16:01:21.941Z,6.68
2022-12-16T16:04:10.872Z,6.55
2022-12-16T16:06:58.261Z,7.35
2022-12-16T16:09:50.126Z,7.20
2022-12-16T16:12:38.756Z,7.53
2022-12-16T16:15:47.100Z,7.47
2022-12-16T16:18:33.609Z,7.53
2022-12-16T16:21:40.008Z,6.95
2022-12-16T16:24:26.807Z,7.97
2022-12-16T16:27:14.212Z,6.68
2022-12-16T16:30:00.363Z,7.47
2022-12-16T16:32:46.877Z,6.72
2022-12-16T16:35:36.207Z,7.75
2022-12-16T16:38:22.625Z,7.35
2022-12-16T16:41:11.745Z,6.88
2022-12-16T16:43:58.385Z,8.05
2022-12-16T16:46:59.439Z,7.65
2022-12-16T16:49:54.693Z,7.93
2022-12-16T16:52:43.489Z,7.32
2022-12-16T16:55:41.304Z,6.72
2022-12-16T16:58:33.444Z,6.35
2022-12-16T17:01:20.299Z,7.28
2022-12-16T17:04:06.956Z,6.20
2022-12-16T17:06:53.723Z,6.53
2022-12-16T17:09:42.384Z,6.65
2022-12-16T17:12:43.483Z,6.78
2022-12-16T17:15:41.015Z,6.63
2022-12-16T17:18:27.403Z,6.82
2022-12-16T17:21:14.020Z,6.82
2022-12-16T17:24:00.657Z,6.20
2022-12-16T17:26:47.419Z,6.72
2022-12-16T17:29:43.161Z,6.43
2022-12-16T17:32:30.512Z,7.25
2022-12-16T17:35:17.748Z,6.57
2022-12-16T17:38:04.523Z,5.90
2022-12-16T17:40:50.593Z,7.03
2022-12-16T17:43:37.127Z,6.90
2022-12-16T17:46:25.903Z,7.07
2022-12-16T17:49:16.646Z,6.45
2022-12-16T17:52:03.408Z,6.38
2022-12-16T17:54:50.080Z,7.18
2022-12-16T17:57:36.491Z,7.40
2022-12-16T18:00:23.912Z,7.25
2022-12-16T18:03:10.615Z,6.30
2022-12-16T18:05:57.565Z,7.53
2022-12-16T18:08:43.900Z,8.10
2022-12-16T18:11:33.477Z,7.43
2022-12-16T18:14:22.153Z,8.30
2022-12-16T18:17:08.326Z,6.90
2022-12-16T18:19:54.759Z,7.78
2022-12-16T18:22:41.193Z,7.65
2022-12-16T18:25:27.782Z,7.13
2022-12-16T18:28:14.173Z,7.85
2022-12-16T18:31:00.331Z,6.90
2022-12-16T18:33:46.934Z,6.88
2022-12-16T18:36:33.386Z,7.20
2022-12-16T18:39:19.503Z,7.35
2022-12-16T18:42:06.783Z,7.22
2022-12-16T18:44:59.241Z,7.55
2022-12-16T18:47:47.386Z,7.97
2022-12-16T18:50:37.858Z,7.43
2022-12-16T18:53:25.248Z,7.20
2022-12-16T18:56:26.165Z,7.70
2022-12-16T18:59:12.858Z,7.90
2022-12-16T19:01:59.552Z,8.07
2022-12-16T19:04:46.217Z,8.00
2022-12-16T19:07:33.991Z,7.82
2022-12-16T19:10:20.569Z,8.80
2022-12-16T19:13:06.759Z,8.45
2022-12-16T19:15:53.284Z,8.63
2022-12-16T19:18:39.817Z,8.73
2022-12-16T19:21:40.044Z,8.52
2022-12-16T19:24:26.743Z,8.32
2022-12-16T19:27:15.621Z,7.78
2022-12-16T19:30:02.179Z,8.27
2022-12-16T19:32:48.680Z,8.63
2022-12-16T19:35:35.048Z,8.63
2022-12-16T19:38:21.519Z,8.52
2022-12-16T19:41:12.211Z,8.63
2022-12-16T19:44:05.325Z,8.02
2022-12-16T19:46:55.847Z,7.88
2022-12-16T19:52:48.914Z,7.80
2022-12-16T19:55:35.374Z,8.05
2022-12-16T19:58:21.825Z,8.50
2022-12-16T20:01:07.948Z,8.20
2022-12-16T20:07:00.883Z,8.32
2022-12-16T20:09:47.699Z,8.77
2022-12-16T20:12:34.215Z,7.55
2022-12-16T20:15:20.452Z,8.48
2022-12-16T20:18:07.800Z,8.85
2022-12-16T20:20:54.118Z,8.90
2022-12-16T20:23:41.751Z,8.25
2022-12-16T20:26:28.499Z,8.93
2022-12-16T20:29:19.293Z,8.25
2022-12-16T20:32:05.792Z,8.48
2022-12-16T20:34:52.209Z,8.15
2022-12-16T20:37:38.493Z,8.63
2022-12-16T20:40:25.610Z,8.50
2022-12-16T20:43:11.994Z,8.05
2022-12-16T20:45:58.301Z,7.68
2022-12-16T20:48:46.237Z,8.13
2022-12-16T20:51:36.201Z,7.68
2022-12-16T20:54:22.707Z,7.85
2022-12-16T20:57:12.780Z,7.78
2022-12-16T20:59:59.688Z,8.48
2022-12-16T21:02:46.022Z,7.78
2022-12-16T21:05:32.621Z,7.70
2022-12-16T21:08:19.074Z,8.43
2022-12-16T21:11:05.700Z,7.75
2022-12-16T21:13:51.972Z,7.72
2022-12-16T21:16:38.387Z,7.53
2022-12-16T21:19:29.431Z,8.55
2022-12-16T21:22:19.172Z,8.25
2022-12-16T21:25:05.597Z,7.15
2022-12-16T21:27:51.798Z,7.60
2022-12-16T21:30:38.804Z,7.78
2022-12-16T21:33:24.975Z,8.40
2022-12-16T21:36:12.566Z,8.55
2022-12-16T21:39:18.776Z,7.95
2022-12-16T21:42:05.463Z,8.10
2022-12-16T21:45:02.705Z,7.40
2022-12-16T21:47:49.442Z,8.15
2022-12-16T21:50:35.925Z,7.95
2022-12-16T21:53:24.755Z,8.18
2022-12-16T21:56:12.468Z,7.40
2022-12-16T21:58:58.801Z,8.38
2022-12-16T22:01:45.104Z,8.07
2022-12-16T22:04:31.961Z,8.25
2022-12-16T22:07:21.944Z,8.13
2022-12-16T22:10:08.080Z,8.68
2022-12-16T22:12:56.136Z,7.80
2022-12-16T22:15:42.862Z,7.90
2022-12-16T22:18:29.442Z,8.55
2022-12-16T22:21:23.992Z,9.35
2022-12-16T22:24:10.758Z,8.00
2022-12-16T22:26:57.221Z,9.00
2022-12-16T22:29:43.893Z,8.38
2022-12-16T22:32:30.042Z,8.48
2022-12-16T22:35:16.437Z,8.68
2022-12-16T22:38:02.905Z,8.70
2022-12-16T22:40:48.979Z,9.02
2022-12-16T22:43:35.749Z,9.20
2022-12-16T22:46:23.506Z,9.15
2022-12-16T22:49:11.568Z,8.77
2022-12-16T22:52:00.795Z,8.90
2022-12-16T22:54:47.116Z,9.30
2022-12-16T22:57:34.021Z,9.02
2022-12-16T23:00:20.293Z,10.07
2022-12-16T23:03:06.437Z,10.40
2022-12-16T23:05:53.270Z,11.65
2022-12-16T23:08:39.572Z,10.45
2022-12-16T23:11:25.833Z,10.88
2022-12-16T23:14:12.385Z,11.23
2022-12-16T23:16:58.511Z,9.50
2022-12-16T23:19:45.001Z,10.25
2022-12-16T23:22:31.272Z,9.57
2022-12-16T23:25:17.521Z,9.73
2022-12-16T23:28:03.845Z,10.80
2022-12-16T23:30:50.047Z,9.38
2022-12-16T23:33:36.504Z,10.02
2022-12-16T23:36:23.576Z,9.68
2022-12-16T23:39:09.749Z,9.15
2022-12-16T23:41:58.371Z,9.85
2022-12-16T23:44:49.781Z,10.07
2022-12-16T23:47:40.486Z,9.02
2022-12-16T23:50:27.307Z,10.13
2022-12-16T23:53:42.754Z,9.30
2022-12-16T23:56:29.182Z,9.32
2022-12-16T23:59:20.034Z,8.68
